Terminal Aerodrome Forecast
Issued by NWS

Home | Current Version | Previous Version | Text Only | Print | Product List | Glossary On
Versions: 1 2 3 4 5 6 7 8 9 10 11 12 13 14 15 16 17 18 19 20 21
013
FTUS43 KGRR 220024 AAA
TAFMKG
TAF AMD
KMKG 220024Z 2200/2224 17005KT 3SM BR BKN003
     FM220100 16004KT 1SM BR SCT060
     FM220300 17005KT 1/2SM FG VV002
     FM221200 20008KT 1 1/2SM BR BKN040
     FM221500 20012G25KT P6SM SCT040=

USA.gov is the U.S. government's official web portal to all federal, state and local government web resources and services.